createdAt,value
2023-12-23T00:02:24.821Z,89.47
2023-12-23T00:04:51.287Z,88.33
2023-12-23T00:07:17.784Z,88.65
2023-12-23T00:09:44.367Z,88.72
2023-12-23T00:12:11.058Z,88.61
2023-12-23T00:14:37.596Z,88.12
2023-12-23T00:17:04.640Z,88.10
2023-12-23T00:19:31.363Z,87.46
2023-12-23T00:21:57.885Z,87.03
2023-12-23T00:24:25.595Z,87.06
2023-12-23T00:26:52.140Z,86.88
2023-12-23T00:29:18.762Z,86.60
2023-12-23T00:31:45.309Z,86.79
2023-12-23T00:34:11.937Z,86.77
2023-12-23T00:36:38.356Z,87.28
2023-12-23T00:39:05.305Z,87.80
2023-12-23T00:41:31.844Z,87.83
2023-12-23T00:43:58.402Z,88.42
2023-12-23T00:46:25.191Z,89.15
2023-12-23T00:48:51.760Z,90.08
2023-12-23T00:51:18.313Z,90.48
2023-12-23T00:53:47.372Z,90.05
2023-12-23T00:56:22.765Z,89.59
2023-12-23T00:58:50.208Z,89.68
2023-12-23T01:01:16.864Z,90.03
2023-12-23T01:03:44.808Z,90.47
2023-12-23T01:06:11.645Z,90.57
2023-12-23T01:08:38.197Z,89.64
2023-12-23T01:11:04.801Z,89.94
2023-12-23T01:13:31.349Z,90.29
2023-12-23T01:15:57.776Z,89.88
2023-12-23T01:18:24.403Z,90.06
2023-12-23T01:20:50.938Z,90.00
2023-12-23T01:23:17.518Z,89.64
2023-12-23T01:25:44.303Z,88.93
2023-12-23T01:28:10.883Z,89.04
2023-12-23T01:30:37.882Z,88.94
2023-12-23T01:33:04.614Z,89.08
2023-12-23T01:35:31.248Z,88.10
2023-12-23T01:37:59.833Z,87.81
2023-12-23T01:40:27.075Z,88.15
2023-12-23T01:42:53.646Z,88.20
2023-12-23T01:45:20.244Z,87.89
2023-12-23T01:47:50.015Z,87.48
2023-12-23T01:50:20.295Z,87.12
2023-12-23T01:52:47.411Z,86.31
2023-12-23T01:55:14.304Z,87.20
2023-12-23T01:57:41.528Z,86.00
2023-12-23T02:00:08.786Z,86.48
2023-12-23T02:02:39.604Z,86.24
2023-12-23T02:05:07.801Z,86.32
2023-12-23T02:07:36.183Z,85.98
2023-12-23T02:10:04.290Z,86.26
2023-12-23T02:13:05.508Z,85.73
2023-12-23T02:15:39.902Z,85.44
2023-12-23T02:18:06.619Z,84.83
2023-12-23T02:20:33.136Z,85.31
2023-12-23T02:22:59.720Z,85.53
2023-12-23T02:25:26.224Z,85.08
2023-12-23T02:27:59.629Z,85.68
2023-12-23T02:30:27.466Z,86.18
2023-12-23T02:32:54.724Z,86.14
2023-12-23T02:35:27.352Z,86.34
2023-12-23T02:37:53.865Z,86.86
2023-12-23T02:40:20.314Z,86.74
2023-12-23T02:42:46.817Z,87.11
2023-12-23T02:45:13.359Z,87.38
2023-12-23T02:47:39.877Z,88.06
2023-12-23T02:50:07.003Z,88.97
2023-12-23T02:52:33.550Z,89.43
2023-12-23T02:55:00.069Z,89.85
2023-12-23T02:57:26.510Z,90.39
2023-12-23T02:59:53.048Z,90.18
2023-12-23T03:02:19.625Z,91.46
2023-12-23T03:04:46.206Z,90.83
2023-12-23T03:07:12.657Z,90.61
2023-12-23T03:09:39.187Z,90.27
2023-12-23T03:12:06.129Z,90.75
2023-12-23T03:14:32.597Z,89.90
2023-12-23T03:16:59.121Z,90.90
2023-12-23T03:19:25.643Z,91.11
2023-12-23T03:21:52.112Z,90.82
2023-12-23T03:24:18.751Z,91.06
2023-12-23T03:26:45.234Z,91.77
2023-12-23T03:29:11.814Z,91.55
2023-12-23T03:31:39.509Z,91.14
2023-12-23T03:34:06.072Z,91.08
2023-12-23T03:36:32.669Z,91.82
2023-12-23T03:38:59.202Z,91.36
2023-12-23T03:41:25.764Z,91.68
2023-12-23T03:43:52.285Z,91.50
2023-12-23T03:46:20.451Z,90.90
2023-12-23T03:48:48.515Z,90.79
2023-12-23T03:51:16.150Z,90.93
2023-12-23T03:53:43.584Z,90.57
2023-12-23T03:56:10.248Z,91.11
2023-12-23T03:58:37.303Z,91.54
2023-12-23T04:01:04.240Z,91.57
2023-12-23T04:03:30.888Z,91.69
2023-12-23T04:05:57.896Z,91.52
2023-12-23T04:08:24.511Z,92.26
2023-12-23T04:10:51.217Z,92.68
2023-12-23T04:13:18.071Z,92.72
2023-12-23T04:15:44.765Z,92.42
2023-12-23T04:18:11.369Z,91.73
2023-12-23T04:20:37.947Z,91.60
2023-12-23T04:23:04.668Z,91.80
2023-12-23T04:25:31.250Z,91.90
2023-12-23T04:27:57.742Z,91.30
2023-12-23T04:30:24.258Z,91.41
2023-12-23T04:32:51.379Z,92.38
2023-12-23T04:35:18.265Z,92.49
2023-12-23T04:37:45.898Z,92.65
2023-12-23T04:40:12.719Z,92.98
2023-12-23T04:42:39.241Z,92.95
2023-12-23T04:45:06.284Z,93.18
2023-12-23T04:47:32.983Z,92.73
2023-12-23T04:49:59.526Z,91.96
2023-12-23T04:52:26.026Z,92.21
2023-12-23T04:54:52.502Z,92.64
2023-12-23T04:57:18.934Z,92.48
2023-12-23T04:59:45.373Z,92.46
2023-12-23T05:02:11.912Z,92.66
2023-12-23T05:04:38.493Z,93.19
2023-12-23T05:07:05.147Z,93.04
2023-12-23T05:09:31.686Z,92.93
2023-12-23T05:11:58.202Z,93.14
2023-12-23T05:14:24.732Z,93.43
2023-12-23T05:16:51.320Z,93.69
2023-12-23T05:19:17.816Z,94.12
2023-12-23T05:21:45.120Z,94.22
2023-12-23T05:24:11.745Z,94.83
2023-12-23T05:26:38.177Z,94.73
2023-12-23T05:29:04.839Z,94.76
2023-12-23T05:31:31.311Z,95.24
2023-12-23T05:33:58.101Z,95.37
2023-12-23T05:36:24.691Z,95.26
2023-12-23T05:38:51.209Z,95.44
2023-12-23T05:41:17.758Z,94.71
2023-12-23T05:43:44.320Z,95.01
2023-12-23T05:46:10.842Z,95.05
2023-12-23T05:48:37.450Z,95.55
2023-12-23T05:51:04.084Z,95.60
2023-12-23T05:53:30.570Z,95.54
2023-12-23T05:55:57.409Z,95.56
2023-12-23T05:58:23.997Z,96.05
2023-12-23T06:00:51.225Z,96.06
2023-12-23T06:03:17.826Z,95.64
2023-12-23T06:05:44.437Z,95.80
2023-12-23T06:08:10.977Z,95.42
2023-12-23T06:10:47.453Z,95.90
2023-12-23T06:13:21.161Z,95.38
2023-12-23T06:15:47.675Z,95.50
2023-12-23T06:18:14.359Z,95.65
2023-12-23T06:20:40.942Z,96.56
2023-12-23T06:23:07.531Z,95.83
2023-12-23T06:25:34.599Z,95.34
2023-12-23T06:28:01.103Z,95.29
2023-12-23T06:30:27.606Z,95.58
2023-12-23T06:32:54.435Z,95.32
2023-12-23T06:35:21.659Z,95.61
2023-12-23T06:37:48.313Z,95.55
2023-12-23T06:40:16.382Z,95.61
2023-12-23T06:42:42.943Z,95.55
2023-12-23T06:45:10.138Z,95.96
2023-12-23T06:47:36.898Z,95.41
2023-12-23T06:50:03.897Z,95.48
2023-12-23T06:52:30.508Z,95.80
2023-12-23T06:54:57.138Z,95.62
2023-12-23T06:57:23.571Z,95.42
2023-12-23T06:59:50.105Z,95.05
2023-12-23T07:02:16.726Z,94.58
2023-12-23T07:04:43.558Z,95.29
2023-12-23T07:07:11.310Z,95.04
2023-12-23T07:09:37.818Z,94.84
2023-12-23T07:12:05.711Z,95.24
2023-12-23T07:14:32.373Z,94.59
2023-12-23T07:16:58.966Z,94.77
2023-12-23T07:19:25.588Z,95.45
2023-12-23T07:21:54.510Z,95.14
2023-12-23T07:24:21.393Z,94.94
2023-12-23T07:26:47.852Z,94.95
2023-12-23T07:29:14.382Z,95.01
2023-12-23T07:31:41.047Z,94.53
2023-12-23T07:34:08.686Z,94.12
2023-12-23T07:36:35.425Z,94.56
2023-12-23T07:39:01.997Z,94.69
2023-12-23T07:41:28.602Z,94.85
2023-12-23T07:43:55.278Z,94.05
2023-12-23T07:46:21.867Z,94.26
2023-12-23T07:48:48.404Z,95.04
2023-12-23T07:51:16.007Z,94.75
2023-12-23T07:53:42.627Z,94.59
2023-12-23T07:56:09.503Z,94.94
2023-12-23T07:58:36.071Z,94.86
2023-12-23T08:01:02.708Z,94.79
2023-12-23T08:03:29.284Z,94.31
2023-12-23T08:05:55.900Z,95.41
2023-12-23T08:08:22.671Z,94.92
2023-12-23T08:10:51.483Z,95.21
2023-12-23T08:13:18.908Z,94.91
2023-12-23T08:15:45.505Z,94.88
2023-12-23T08:18:13.278Z,94.47
2023-12-23T08:20:39.877Z,95.21
2023-12-23T08:23:06.467Z,94.43
2023-12-23T08:25:35.663Z,95.11
2023-12-23T08:28:02.270Z,95.20
2023-12-23T08:30:28.787Z,94.96
2023-12-23T08:32:55.576Z,94.93
2023-12-23T08:35:22.701Z,94.77
2023-12-23T08:37:49.716Z,95.06
2023-12-23T08:40:16.752Z,94.55
2023-12-23T08:42:45.660Z,94.25
2023-12-23T08:45:12.200Z,94.41
2023-12-23T08:47:39.183Z,94.43
2023-12-23T08:50:06.418Z,93.96
2023-12-23T08:52:32.959Z,94.42
2023-12-23T08:54:59.443Z,93.61
2023-12-23T09:02:58.196Z,95.18
2023-12-23T09:05:24.745Z,94.40
2023-12-23T09:07:51.601Z,94.82
2023-12-23T09:10:18.476Z,95.40
2023-12-23T09:12:44.932Z,95.42
2023-12-23T09:15:11.567Z,95.08
2023-12-23T09:17:38.122Z,95.49
2023-12-23T09:20:11.672Z,95.79
2023-12-23T09:22:38.506Z,94.63
2023-12-23T09:25:05.400Z,94.95
2023-12-23T09:27:32.585Z,95.71
2023-12-23T09:30:00.819Z,95.66
2023-12-23T09:32:27.491Z,96.07
2023-12-23T09:34:55.301Z,95.12
2023-12-23T09:37:22.053Z,95.48
2023-12-23T09:39:48.648Z,95.05
2023-12-23T09:42:15.310Z,95.47
2023-12-23T09:44:41.908Z,95.99
2023-12-23T09:47:08.965Z,95.37
2023-12-23T09:49:38.026Z,95.77
2023-12-23T09:52:05.280Z,96.00
2023-12-23T09:54:39.792Z,96.93
2023-12-23T09:57:07.853Z,96.54
2023-12-23T09:59:35.086Z,96.99
2023-12-23T10:02:01.622Z,96.67
2023-12-23T10:04:29.857Z,96.83
2023-12-23T10:06:56.453Z,96.80
2023-12-23T10:09:24.492Z,97.06
2023-12-23T10:11:52.114Z,97.58
2023-12-23T10:14:22.007Z,96.72
2023-12-23T10:16:48.898Z,97.35
2023-12-23T10:19:15.517Z,96.75
2023-12-23T10:21:42.998Z,97.68
2023-12-23T10:24:09.611Z,97.34
2023-12-23T10:26:36.122Z,97.48
2023-12-23T10:29:05.360Z,96.55
2023-12-23T10:31:34.500Z,97.56
2023-12-23T10:34:03.648Z,97.68
2023-12-23T10:36:31.738Z,97.51
2023-12-23T10:39:08.139Z,97.03
2023-12-23T10:41:40.609Z,97.13
2023-12-23T10:44:09.784Z,97.13
2023-12-23T10:46:37.428Z,97.43
2023-12-23T10:49:07.238Z,97.16
2023-12-23T10:51:34.238Z,96.56
2023-12-23T10:54:03.325Z,97.27
2023-12-23T10:56:31.000Z,97.15
2023-12-23T10:58:58.117Z,96.07
2023-12-23T11:01:30.060Z,97.49
2023-12-23T11:04:01.387Z,97.04
2023-12-23T11:06:35.305Z,97.12
2023-12-23T11:09:03.730Z,96.66
2023-12-23T11:11:31.710Z,97.09
2023-12-23T11:13:58.728Z,95.78
2023-12-23T11:16:25.461Z,96.67
2023-12-23T11:18:53.473Z,95.87
2023-12-23T11:21:20.100Z,95.67
2023-12-23T11:23:47.435Z,95.66
2023-12-23T11:26:39.074Z,94.41
2023-12-23T11:29:06.137Z,94.64
2023-12-23T11:31:32.963Z,94.25
2023-12-23T11:34:00.766Z,92.93
2023-12-23T11:36:27.458Z,92.82
2023-12-23T11:38:54.570Z,92.28
2023-12-23T11:41:21.977Z,92.14
2023-12-23T11:43:51.041Z,91.97
2023-12-23T11:46:20.340Z,92.31
2023-12-23T11:48:46.895Z,91.74
2023-12-23T11:51:14.112Z,92.25
2023-12-23T11:53:41.272Z,93.01
2023-12-23T11:56:08.243Z,93.32
2023-12-23T11:58:35.066Z,93.25
2023-12-23T12:01:01.781Z,93.11
2023-12-23T12:03:28.469Z,92.54
2023-12-23T12:05:59.105Z,93.12
2023-12-23T12:08:27.551Z,92.23
2023-12-23T12:11:00.539Z,92.52
2023-12-23T12:13:30.220Z,92.68
2023-12-23T12:15:56.693Z,92.82
2023-12-23T12:18:23.300Z,93.22
2023-12-23T12:20:49.918Z,93.63
2023-12-23T12:23:16.503Z,93.34
2023-12-23T12:25:50.333Z,93.23
2023-12-23T12:28:17.807Z,93.23
2023-12-23T12:30:48.343Z,93.05
2023-12-23T12:33:18.560Z,92.79
2023-12-23T12:35:45.126Z,92.23
2023-12-23T12:38:17.356Z,92.66
2023-12-23T12:40:50.065Z,92.81
2023-12-23T12:43:16.660Z,93.31
2023-12-23T12:45:43.367Z,92.29
2023-12-23T12:48:13.613Z,92.05
2023-12-23T12:50:43.030Z,92.42
2023-12-23T12:53:10.129Z,92.25
2023-12-23T12:55:36.773Z,92.38
2023-12-23T12:58:03.795Z,91.46
2023-12-23T13:00:30.602Z,91.36
2023-12-23T13:02:57.484Z,90.84
2023-12-23T13:05:24.281Z,92.14
2023-12-23T13:07:53.898Z,92.31
2023-12-23T13:10:24.244Z,92.07
2023-12-23T13:12:51.294Z,91.93
2023-12-23T13:15:21.020Z,92.20
2023-12-23T13:17:47.663Z,91.56
2023-12-23T13:20:14.564Z,92.83
2023-12-23T13:22:41.089Z,92.96
2023-12-23T13:25:11.212Z,92.32
2023-12-23T13:27:37.880Z,92.90
2023-12-23T13:30:05.336Z,91.88
2023-12-23T13:32:34.010Z,92.17
2023-12-23T13:35:04.442Z,91.43
2023-12-23T13:37:31.574Z,90.05
2023-12-23T13:39:58.096Z,89.84
2023-12-23T13:42:25.461Z,89.44
2023-12-23T13:44:52.722Z,88.83
2023-12-23T13:47:19.362Z,89.41
2023-12-23T13:49:46.103Z,89.23
2023-12-23T13:52:15.309Z,89.23
2023-12-23T13:54:41.911Z,88.85
2023-12-23T13:57:09.398Z,88.79
2023-12-23T13:59:35.887Z,88.39
2023-12-23T14:02:03.436Z,87.55
2023-12-23T14:04:29.921Z,87.32
2023-12-23T14:06:56.547Z,86.51
2023-12-23T14:09:23.325Z,86.75
2023-12-23T14:11:49.812Z,87.20
2023-12-23T14:14:16.367Z,87.35
2023-12-23T14:16:42.901Z,86.97
2023-12-23T14:19:09.464Z,85.97
2023-12-23T14:21:35.985Z,86.14
2023-12-23T14:24:02.694Z,85.72
2023-12-23T14:26:29.542Z,85.36
2023-12-23T14:28:57.386Z,84.75
2023-12-23T14:31:25.158Z,84.38
2023-12-23T14:33:54.648Z,84.30
2023-12-23T14:36:21.434Z,84.40
2023-12-23T14:38:47.943Z,83.85
2023-12-23T14:41:15.104Z,84.00
2023-12-23T14:43:41.614Z,82.89
2023-12-23T14:46:09.990Z,83.32
2023-12-23T14:48:36.830Z,82.62
2023-12-23T14:51:03.622Z,82.85
2023-12-23T14:53:30.509Z,82.03
2023-12-23T14:55:57.258Z,82.26
2023-12-23T14:58:23.776Z,82.06
2023-12-23T15:00:50.274Z,82.32
2023-12-23T15:03:16.824Z,81.02
2023-12-23T15:05:43.658Z,81.34
2023-12-23T15:08:10.362Z,82.19
2023-12-23T15:10:36.875Z,82.64
2023-12-23T15:13:05.481Z,83.80
2023-12-23T15:15:33.635Z,85.06
2023-12-23T15:18:00.486Z,86.95
2023-12-23T15:20:27.272Z,88.09
2023-12-23T15:22:54.187Z,89.67
2023-12-23T15:25:20.952Z,88.96
2023-12-23T15:27:47.579Z,89.98
2023-12-23T15:30:14.625Z,89.03
2023-12-23T15:32:41.580Z,89.91
2023-12-23T15:35:08.850Z,91.50
2023-12-23T15:37:35.438Z,90.76
2023-12-23T15:40:02.013Z,91.90
2023-12-23T15:42:28.758Z,90.61
2023-12-23T15:44:55.603Z,91.06
2023-12-23T15:47:22.217Z,91.71
2023-12-23T15:49:48.810Z,91.28
2023-12-23T15:52:15.401Z,91.35
2023-12-23T15:54:42.191Z,91.18
2023-12-23T15:57:08.678Z,90.69
2023-12-23T15:59:35.253Z,90.01
2023-12-23T16:02:04.151Z,91.37
2023-12-23T16:04:31.093Z,91.06
2023-12-23T16:06:57.636Z,91.48
2023-12-23T16:09:24.145Z,91.82
2023-12-23T16:11:50.847Z,91.96
2023-12-23T16:14:17.502Z,90.81
2023-12-23T16:16:44.023Z,90.94
2023-12-23T16:19:10.762Z,90.60
2023-12-23T16:21:37.320Z,89.29
2023-12-23T16:24:03.949Z,89.21
2023-12-23T16:26:30.462Z,88.03
2023-12-23T16:28:57.022Z,87.00
2023-12-23T16:31:23.612Z,85.88
2023-12-23T16:33:50.390Z,85.91
2023-12-23T16:36:17.024Z,85.44
2023-12-23T16:38:43.598Z,84.96
2023-12-23T16:41:13.993Z,83.55
2023-12-23T16:43:40.868Z,83.06
2023-12-23T16:46:09.045Z,82.98
2023-12-23T16:48:36.063Z,82.79
2023-12-23T16:51:02.689Z,82.73
2023-12-23T16:53:29.348Z,82.89
2023-12-23T16:55:56.024Z,83.32
2023-12-23T16:58:22.610Z,83.07
2023-12-23T17:00:49.162Z,82.24
2023-12-23T17:03:17.925Z,81.89
2023-12-23T17:05:45.033Z,81.85
2023-12-23T17:08:11.861Z,81.56
2023-12-23T17:10:38.570Z,81.29
2023-12-23T17:13:05.122Z,81.17
2023-12-23T17:15:31.712Z,81.04
2023-12-23T17:17:58.622Z,81.12
2023-12-23T17:20:25.458Z,80.27
2023-12-23T17:22:55.089Z,80.00
2023-12-23T17:25:22.204Z,79.79
2023-12-23T17:27:48.764Z,78.86
2023-12-23T17:30:15.681Z,78.08
2023-12-23T17:32:42.665Z,77.46
2023-12-23T17:35:10.798Z,77.37
2023-12-23T17:37:37.516Z,77.53
2023-12-23T17:40:04.433Z,76.38
2023-12-23T17:42:30.929Z,75.32
2023-12-23T17:44:59.445Z,76.21
2023-12-23T17:47:26.351Z,75.34
2023-12-23T17:49:53.243Z,75.39
2023-12-23T17:52:20.878Z,75.88
2023-12-23T17:54:48.472Z,75.56
2023-12-23T17:57:17.641Z,74.34
2023-12-23T17:59:44.241Z,75.66
2023-12-23T18:02:10.979Z,75.05
2023-12-23T18:04:37.561Z,74.29
2023-12-23T18:07:04.322Z,74.86
2023-12-23T18:09:31.663Z,75.17
2023-12-23T18:11:58.378Z,75.64
2023-12-23T18:14:28.589Z,75.69
2023-12-23T18:16:55.772Z,75.56
2023-12-23T18:19:22.505Z,76.03
2023-12-23T18:21:49.220Z,76.07
2023-12-23T18:24:15.874Z,76.37
2023-12-23T18:26:43.517Z,76.11
2023-12-23T18:29:10.348Z,76.25
2023-12-23T18:31:36.954Z,76.43
2023-12-23T18:34:03.915Z,75.92
2023-12-23T18:36:32.774Z,75.79
2023-12-23T18:38:59.719Z,76.14
2023-12-23T18:41:26.961Z,77.19
2023-12-23T18:43:53.722Z,75.50
2023-12-23T18:46:20.342Z,76.30
2023-12-23T18:48:47.609Z,75.99
2023-12-23T18:51:14.246Z,76.09
2023-12-23T18:53:40.852Z,75.96
2023-12-23T18:56:07.600Z,76.69
2023-12-23T18:58:34.210Z,77.48
2023-12-23T19:01:02.569Z,76.53
2023-12-23T19:03:29.200Z,77.43
2023-12-23T19:05:59.197Z,78.59
2023-12-23T19:08:28.920Z,78.08
2023-12-23T19:10:58.151Z,78.65
2023-12-23T19:13:25.883Z,79.09
2023-12-23T19:15:52.433Z,79.07
2023-12-23T19:18:19.130Z,79.00
2023-12-23T19:20:46.889Z,78.84
2023-12-23T19:23:13.868Z,79.20
2023-12-23T19:25:40.597Z,78.53
2023-12-23T19:28:07.329Z,79.47
2023-12-23T19:30:33.889Z,79.28
2023-12-23T19:33:00.810Z,78.39
2023-12-23T19:35:27.462Z,78.55
2023-12-23T19:37:54.169Z,78.37
2023-12-23T19:40:20.724Z,77.24
2023-12-23T19:42:47.240Z,77.03
2023-12-23T19:45:15.281Z,76.38
2023-12-23T19:47:42.206Z,76.75
2023-12-23T19:50:09.188Z,76.21
2023-12-23T19:52:36.167Z,75.61
2023-12-23T19:55:02.747Z,75.56
2023-12-23T19:57:29.334Z,75.30
2023-12-23T19:59:55.824Z,75.26
2023-12-23T20:02:22.382Z,75.02
2023-12-23T20:04:48.991Z,74.00
2023-12-23T20:07:15.512Z,74.00
2023-12-23T20:09:42.017Z,73.40
2023-12-23T20:12:08.744Z,73.25
2023-12-23T20:14:35.925Z,73.41
2023-12-23T20:17:02.802Z,74.28
2023-12-23T20:19:29.321Z,73.76
2023-12-23T20:21:55.957Z,73.38
2023-12-23T20:24:23.130Z,74.12
2023-12-23T20:26:49.886Z,74.54
2023-12-23T20:29:16.465Z,73.38
2023-12-23T20:31:42.992Z,73.83
2023-12-23T20:34:10.522Z,74.06
2023-12-23T20:36:44.553Z,74.12
2023-12-23T20:39:11.572Z,74.64
2023-12-23T20:41:52.053Z,74.15
2023-12-23T20:44:18.557Z,73.64
2023-12-23T20:46:45.192Z,74.48
2023-12-23T20:49:11.783Z,74.90
2023-12-23T20:51:38.357Z,75.25
2023-12-23T20:54:05.429Z,75.18
2023-12-23T20:56:32.873Z,74.78
2023-12-23T20:58:59.485Z,75.47
2023-12-23T21:01:25.999Z,75.70
2023-12-23T21:03:54.631Z,75.22
2023-12-23T21:06:21.741Z,75.37
2023-12-23T21:08:49.442Z,76.12
2023-12-23T21:11:17.436Z,75.95
2023-12-23T21:13:45.104Z,76.24
2023-12-23T21:16:11.717Z,76.95
2023-12-23T21:18:45.557Z,77.08
2023-12-23T21:21:12.695Z,76.68
2023-12-23T21:23:39.381Z,76.66
2023-12-23T21:26:06.026Z,77.21
2023-12-23T21:28:32.600Z,76.31
2023-12-23T21:30:59.185Z,76.83
2023-12-23T21:33:27.417Z,77.08
2023-12-23T21:35:54.083Z,76.46
2023-12-23T21:38:21.607Z,77.46
2023-12-23T21:40:51.554Z,77.09
2023-12-23T21:43:18.106Z,76.85
2023-12-23T21:45:44.771Z,76.73
2023-12-23T21:48:12.542Z,76.91
2023-12-23T21:50:39.251Z,76.99
2023-12-23T21:53:05.947Z,76.48
2023-12-23T21:55:32.516Z,75.95
2023-12-23T21:57:59.157Z,76.58
2023-12-23T22:00:25.825Z,76.13
2023-12-23T22:02:52.553Z,76.41
2023-12-23T22:05:19.335Z,76.04
2023-12-23T22:07:45.856Z,77.66
2023-12-23T22:10:14.019Z,76.34
2023-12-23T22:12:41.003Z,77.57
2023-12-23T22:15:08.462Z,77.13
2023-12-23T22:17:35.250Z,79.61
2023-12-23T22:20:03.022Z,80.26
2023-12-23T22:22:30.212Z,80.29
2023-12-23T22:24:59.326Z,80.46
2023-12-23T22:27:25.874Z,80.48
2023-12-23T22:29:52.936Z,80.18
2023-12-23T22:32:19.451Z,80.38
2023-12-23T22:34:46.033Z,79.73
2023-12-23T22:37:12.506Z,80.60
2023-12-23T22:39:38.988Z,80.71
2023-12-23T22:42:05.777Z,80.38
2023-12-23T22:44:32.403Z,80.42
2023-12-23T22:46:59.056Z,79.52
2023-12-23T22:49:25.677Z,79.26
2023-12-23T22:51:52.368Z,79.28
2023-12-23T22:54:18.941Z,79.33
2023-12-23T22:56:45.425Z,79.67
2023-12-23T22:59:11.944Z,79.66
2023-12-23T23:01:38.463Z,79.32
2023-12-23T23:04:05.017Z,79.85
2023-12-23T23:06:31.847Z,80.07
2023-12-23T23:08:58.417Z,79.67
2023-12-23T23:11:25.302Z,80.33
2023-12-23T23:13:51.958Z,79.79
2023-12-23T23:16:18.496Z,80.98
2023-12-23T23:18:45.182Z,80.97
2023-12-23T23:21:11.789Z,82.10
2023-12-23T23:23:39.095Z,83.50
2023-12-23T23:26:06.639Z,87.14
2023-12-23T23:28:34.066Z,87.79
2023-12-23T23:31:00.652Z,88.59
2023-12-23T23:33:27.178Z,87.76
2023-12-23T23:35:53.775Z,88.62
2023-12-23T23:38:20.311Z,87.96
2023-12-23T23:40:49.845Z,87.08
2023-12-23T23:43:16.429Z,87.19
2023-12-23T23:45:42.899Z,87.32
2023-12-23T23:48:09.426Z,85.39
2023-12-23T23:50:36.019Z,85.67
2023-12-23T23:53:03.364Z,84.65
2023-12-23T23:55:29.936Z,84.33
2023-12-23T23:57:56.488Z,83.54
